Time;durP1;ratioP1;P1;durP2;ratioP2;P2;SDS_P1;SDS_P2;PMS_P1;PMS_P2;Temp;Humidity;BMP_temperature;BMP_pressure;BME280_temperature;BME280_humidity;BME280_pressure;Samples;Min_cycle;Max_cycle;Signal;HPM_P1;HPM_P2
2022/08/17 00:01:23;;;;;;;8.00;7.22;;;;;;;18.46;69.83;96049.31;5035259;28;20045;-57
2022/08/17 00:03:52;;;;;;;8.55;6.28;;;;;;;18.49;69.73;96042.00;5035314;28;20389;-67
2022/08/17 00:06:22;;;;;;;7.75;6.55;;;;;;;18.49;69.71;96041.16;5035172;28;20056;-67
2022/08/17 00:08:53;;;;;;;17.02;6.45;;;;;;;18.48;70.06;96044.78;5035128;28;20123;-60
2022/08/17 00:11:22;;;;;;;7.53;6.38;;;;;;;18.43;70.06;96040.66;5035190;28;20056;-68
2022/08/17 00:13:54;;;;;;;13.73;6.85;;;;;;;18.36;69.73;96030.69;5035124;28;20055;-58
2022/08/17 00:16:23;;;;;;;10.00;7.10;;;;;;;18.35;70.42;96036.91;5035039;28;20120;-63
2022/08/17 00:18:51;;;;;;;10.10;7.05;;;;;;;18.35;70.25;96035.13;5034691;28;20099;-66
2022/08/17 00:21:21;;;;;;;7.97;6.40;;;;;;;18.36;70.54;96035.97;5035057;28;20045;-64
2022/08/17 00:23:49;;;;;;;10.48;6.20;;;;;;;18.32;70.74;96038.00;5034893;28;20081;-72
2022/08/17 00:26:17;;;;;;;8.93;6.63;;;;;;;18.33;70.76;96034.38;5034947;28;20128;-66
2022/08/17 00:28:45;;;;;;;10.02;6.75;;;;;;;18.33;70.94;96033.56;5034780;28;20490;-60
2022/08/17 00:31:13;;;;;;;7.03;6.18;;;;;;;18.28;71.20;96036.56;5034747;28;20133;-62
2022/08/17 00:33:42;;;;;;;8.45;6.55;;;;;;;18.26;71.52;96030.53;5034636;28;20054;-64
2022/08/17 00:36:10;;;;;;;15.88;6.97;;;;;;;18.28;71.41;96037.41;5034762;28;20128;-70
2022/08/17 00:38:37;;;;;;;8.57;6.38;;;;;;;18.30;71.54;96032.84;5034756;28;20048;-63
2022/08/17 00:41:06;;;;;;;10.20;6.53;;;;;;;18.24;71.59;96030.66;5034585;28;20399;-65
2022/08/17 00:43:36;;;;;;;11.18;6.40;;;;;;;18.21;71.51;96028.25;5034507;28;20501;-61
2022/08/17 00:46:07;;;;;;;9.90;6.63;;;;;;;18.19;71.59;96032.84;5034518;28;20499;-59
2022/08/17 00:48:36;;;;;;;11.07;7.22;;;;;;;18.23;71.98;96028.97;5034645;28;20695;-59
2022/08/17 00:51:16;;;;;;;10.50;6.80;;;;;;;18.16;71.52;96028.63;5034439;28;20133;-64
2022/08/17 00:54:01;;;;;;;8.70;6.40;;;;;;;18.12;71.88;96031.63;5034584;28;20096;-61
2022/08/17 00:56:31;;;;;;;7.72;6.68;;;;;;;18.11;71.72;96036.06;5034302;28;20052;-65
2022/08/17 00:58:59;;;;;;;12.52;6.40;;;;;;;18.11;71.49;96029.91;5034428;28;20111;-60
2022/08/17 01:01:26;;;;;;;16.67;7.03;;;;;;;18.09;71.52;96034.47;5034248;28;20071;-69
2022/08/17 01:03:56;;;;;;;8.38;6.60;;;;;;;18.09;71.84;96042.41;5034128;28;20164;-61
2022/08/17 01:06:24;;;;;;;7.50;5.93;;;;;;;18.11;71.49;96032.56;5034066;28;20108;-62
2022/08/17 01:08:53;;;;;;;13.10;6.15;;;;;;;18.12;71.29;96035.09;5034119;28;20045;-68
2022/08/17 01:11:20;;;;;;;10.63;5.72;;;;;;;18.14;71.41;96040.25;5034139;28;20073;-65
2022/08/17 01:13:47;;;;;;;8.10;6.35;;;;;;;18.15;71.23;96042.78;5033822;28;20053;-69
2022/08/17 01:16:18;;;;;;;11.05;6.18;;;;;;;18.17;71.30;96038.25;5033580;28;20511;-59
2022/08/17 01:18:48;;;;;;;9.30;6.72;;;;;;;18.18;71.31;96039.06;5033767;28;20072;-63
2022/08/17 01:21:23;;;;;;;8.48;5.70;;;;;;;18.15;71.21;96034.84;5033772;28;20053;-64
2022/08/17 01:23:52;;;;;;;11.25;6.22;;;;;;;18.15;71.31;96036.69;5033824;28;20099;-64
2022/08/17 01:26:20;;;;;;;8.50;6.00;;;;;;;18.11;70.68;96035.22;5033656;28;20380;-61
2022/08/17 01:28:47;;;;;;;10.13;5.70;;;;;;;18.09;70.76;96031.81;5033595;28;20475;-60
2022/08/17 01:31:15;;;;;;;12.77;6.70;;;;;;;18.09;71.04;96034.47;5033086;28;20049;-68
2022/08/17 01:33:42;;;;;;;6.45;5.85;;;;;;;18.05;70.66;96026.75;5033421;28;20088;-64
2022/08/17 01:36:09;;;;;;;12.23;6.22;;;;;;;18.02;70.67;96026.13;5033602;28;20148;-60
2022/08/17 01:38:37;;;;;;;12.77;6.28;;;;;;;18.01;70.86;96021.81;5033391;28;20156;-66
2022/08/17 01:41:10;;;;;;;13.57;6.13;;;;;;;17.97;71.20;96020.38;5033546;28;20120;-70
2022/08/17 01:43:41;;;;;;;6.88;5.75;;;;;;;17.94;70.97;96019.63;5033392;28;20076;-66
2022/08/17 01:46:09;;;;;;;9.68;6.97;;;;;;;17.90;71.10;96019.97;5033327;28;20046;-64
2022/08/17 01:48:38;;;;;;;11.18;6.40;;;;;;;17.90;71.37;96018.19;5033324;28;20051;-66
2022/08/17 01:51:07;;;;;;;8.48;5.97;;;;;;;17.94;71.41;96024.94;5033446;28;20472;-68
2022/08/17 01:53:39;;;;;;;9.88;6.07;;;;;;;17.93;71.35;96023.25;5033389;28;20053;-64
2022/08/17 01:56:11;;;;;;;13.82;6.40;;;;;;;17.90;71.38;96017.34;5033256;28;20412;-67
2022/08/17 01:58:40;;;;;;;9.25;6.25;;;;;;;17.84;71.37;96016.00;5033290;28;20057;-57
2022/08/17 02:01:09;;;;;;;12.20;6.00;;;;;;;17.85;71.61;96014.22;5033222;28;20042;-66
2022/08/17 02:03:38;;;;;;;10.18;5.85;;;;;;;17.85;71.58;96017.69;5033257;28;20128;-71
2022/08/17 02:06:06;;;;;;;11.85;6.05;;;;;;;17.81;71.87;96018.88;5033151;28;20052;-67
2022/08/17 02:08:34;;;;;;;8.43;6.32;;;;;;;17.76;71.48;96019.22;5033338;28;20084;-70
2022/08/17 02:11:02;;;;;;;11.63;6.13;;;;;;;17.73;71.67;96013.34;5033107;28;20059;-69
2022/08/17 02:13:32;;;;;;;8.05;5.82;;;;;;;17.66;72.12;96005.88;5032951;28;20140;-69
2022/08/17 02:16:00;;;;;;;7.95;5.65;;;;;;;17.66;72.19;96010.31;5032781;28;20087;-61
2022/08/17 02:18:27;;;;;;;7.32;6.03;;;;;;;17.67;72.19;96007.53;5032997;28;20060;-64
2022/08/17 02:20:55;;;;;;;8.55;5.90;;;;;;;17.72;71.89;96003.69;5032956;28;20049;-61
2022/08/17 02:23:26;;;;;;;10.65;6.15;;;;;;;17.71;72.13;96009.97;5033021;28;20045;-69
2022/08/17 02:25:54;;;;;;;;;;;;;;;17.71;72.30;96005.53;5033346;28;20084;-62
2022/08/17 02:28:21;;;;;;;5.85;5.25;;;;;;;17.66;72.43;96007.66;5033031;28;19944;-66
2022/08/17 02:30:50;;;;;;;7.68;5.80;;;;;;;17.66;72.37;96007.66;5032886;28;20137;-63
2022/08/17 02:33:17;;;;;;;10.00;5.80;;;;;;;17.60;72.45;96006.31;5033028;28;20510;-63
2022/08/17 02:35:44;;;;;;;9.00;5.85;;;;;;;17.60;72.87;96001.03;5032810;28;20046;-62
2022/08/17 02:38:12;;;;;;;8.93;5.38;;;;;;;17.60;72.90;96001.03;5032984;28;20057;-69
2022/08/17 02:40:39;;;;;;;7.00;5.20;;;;;;;17.59;72.59;96002.00;5032798;28;20041;-69
2022/08/17 02:43:07;;;;;;;9.70;5.93;;;;;;;17.61;72.50;96001.88;5035021;28;20462;-62
2022/08/17 02:45:35;;;;;;;6.07;5.45;;;;;;;17.61;72.45;95999.25;5036734;28;20492;-66
2022/08/17 02:48:04;;;;;;;11.02;6.38;;;;;;;17.57;72.86;96003.91;5036726;28;20045;-63
2022/08/17 02:50:31;;;;;;;11.23;5.82;;;;;;;17.55;72.99;95998.72;5036571;28;20411;-61
2022/08/17 02:52:59;;;;;;;9.18;6.10;;;;;;;17.51;73.05;95999.94;5036433;28;20555;-69
2022/08/17 02:55:28;;;;;;;7.80;6.20;;;;;;;17.44;73.48;95998.69;5036612;28;20045;-69
2022/08/17 02:57:56;;;;;;;11.73;5.57;;;;;;;17.44;73.30;96001.34;5036643;28;20056;-64
2022/08/17 03:00:28;;;;;;;7.82;6.05;;;;;;;17.43;73.49;95994.38;5036539;28;20385;-67
2022/08/17 03:02:57;;;;;;;8.20;5.43;;;;;;;17.47;73.73;96006.41;5036418;28;20085;-63
2022/08/17 03:05:28;;;;;;;8.88;6.00;;;;;;;17.46;73.70;96004.69;5036312;28;20045;-67
2022/08/17 03:07:56;;;;;;;6.80;6.18;;;;;;;17.47;74.11;96002.91;5036398;28;20077;-67
2022/08/17 03:10:24;;;;;;;8.98;5.63;;;;;;;17.46;73.84;96006.53;5036211;28;20132;-68
2022/08/17 03:12:53;;;;;;;14.48;6.43;;;;;;;17.46;73.79;96007.34;5036282;28;20138;-66
2022/08/17 03:15:22;;;;;;;6.55;5.95;;;;;;;17.47;73.71;96003.75;5035942;28;20049;-65
2022/08/17 03:17:50;;;;;;;7.55;5.60;;;;;;;17.48;74.09;96007.22;5036116;28;20073;-67
2022/08/17 03:20:17;;;;;;;8.50;5.32;;;;;;;17.46;74.01;96007.34;5036013;28;20503;-70
2022/08/17 03:22:47;;;;;;;11.65;5.55;;;;;;;17.49;74.23;96004.47;5036056;28;20049;-65
2022/08/17 03:25:22;;;;;;;12.68;6.20;;;;;;;17.51;74.16;96007.00;5036285;28;20046;-61
2022/08/17 03:27:50;;;;;;;6.20;5.60;;;;;;;17.51;74.29;96004.34;5036210;28;20049;-67
2022/08/17 03:30:17;;;;;;;7.28;5.15;;;;;;;17.56;74.47;96010.16;5035855;28;20457;-62
2022/08/17 03:32:47;;;;;;;6.18;5.43;;;;;;;17.58;74.30;96013.50;5035865;28;20053;-67
2022/08/17 03:35:18;;;;;;;9.97;5.90;;;;;;;17.62;74.26;96014.13;5035711;28;20049;-60
2022/08/17 03:37:47;;;;;;;6.53;5.60;;;;;;;17.63;73.93;96007.88;5035702;28;20450;-61
2022/08/17 03:40:16;;;;;;;10.50;5.97;;;;;;;17.68;74.06;96017.19;5035638;28;20089;-63
2022/08/17 03:42:43;;;;;;;7.78;5.15;;;;;;;17.74;73.78;96015.03;5035671;28;20046;-69
2022/08/17 03:45:13;;;;;;;7.57;6.07;;;;;;;17.79;73.50;96013.72;5035567;28;20506;-65
2022/08/17 03:58:44;;;;;;;10.00;5.78;;;;;;;17.97;73.21;96031.78;5035511;28;20461;-70
2022/08/17 04:01:11;;;;;;;6.22;5.63;;;;;;;18.00;73.09;96028.91;5035443;28;20129;-70
2022/08/17 04:03:39;;;;;;;6.38;5.78;;;;;;;18.17;72.91;96040.03;5035273;28;20053;-68
2022/08/17 04:06:06;;;;;;;8.60;5.55;;;;;;;18.37;72.01;96037.66;5035562;28;20045;-68
2022/08/17 04:08:35;;;;;;;9.50;5.18;;;;;;;18.36;71.64;96041.28;5035216;28;20050;-64
2022/08/17 04:11:02;;;;;;;7.47;5.13;;;;;;;18.49;71.93;96039.34;5035084;28;20133;-69
2022/08/17 04:13:30;;;;;;;6.63;5.85;;;;;;;18.74;71.21;96040.06;5035187;28;20103;-61
2022/08/17 04:15:58;;;;;;;5.57;4.97;;;;;;;19.09;69.78;96045.34;5035130;28;20045;-67
2022/08/17 04:18:25;;;;;;;10.88;5.10;;;;;;;19.45;68.43;96049.44;5035063;28;20053;-58
2022/08/17 04:20:52;;;;;;;8.73;4.70;;;;;;;19.83;67.26;96055.22;5034889;28;20080;-71
2022/08/17 04:23:19;;;;;;;8.00;5.30;;;;;;;20.20;66.51;96055.78;5034965;28;20124;-61
2022/08/17 04:25:49;;;;;;;9.80;4.65;;;;;;;20.64;65.41;96055.56;5034878;28;20553;-66
2022/08/17 04:28:18;;;;;;;6.35;5.10;;;;;;;21.03;63.94;96060.22;5034987;28;20049;-74
2022/08/17 04:30:47;;;;;;;5.25;4.45;;;;;;;21.45;62.44;96053.84;5035132;28;20049;-62
2022/08/17 04:33:16;;;;;;;5.38;4.88;;;;;;;21.85;60.93;96059.22;5034739;28;20069;-68
2022/08/17 04:35:46;;;;;;;5.72;4.18;;;;;;;22.25;60.17;96056.50;5034999;28;20053;-64
2022/08/17 04:38:16;;;;;;;8.10;4.68;;;;;;;22.65;58.33;96062.59;5034603;28;20095;-68
2022/08/17 04:43:30;;;;;;;6.43;4.57;;;;;;;23.46;56.12;96061.09;5034834;28;20171;-64
2022/08/17 04:46:00;;;;;;;5.60;4.68;;;;;;;23.89;55.25;96063.13;5034512;28;20450;-70
2022/08/17 04:48:29;;;;;;;5.50;4.60;;;;;;;24.29;54.49;96065.47;5034500;28;20080;-64
2022/08/17 04:50:56;;;;;;;12.77;5.45;;;;;;;24.63;54.03;96063.84;5034548;28;20107;-65
2022/08/17 04:53:23;;;;;;;6.55;4.78;;;;;;;24.99;53.30;96067.19;5034298;28;20068;-68
2022/08/17 04:55:52;;;;;;;4.38;4.00;;;;;;;25.36;52.27;96067.00;5034372;28;20053;-61
2022/08/17 04:58:19;;;;;;;10.05;4.30;;;;;;;25.65;50.80;96067.59;5034312;28;20060;-65
2022/08/17 05:00:48;;;;;;;6.35;4.60;;;;;;;25.91;49.66;96070.13;5034421;28;20081;-61
2022/08/17 05:03:15;;;;;;;6.55;4.00;;;;;;;26.16;49.40;96075.50;5034089;28;20136;-69
2022/08/17 05:05:48;;;;;;;5.10;3.90;;;;;;;26.46;48.07;96072.31;5033495;28;20049;-67
2022/08/17 05:08:17;;;;;;;6.80;4.43;;;;;;;26.87;49.92;96080.25;5034057;28;20112;-64
2022/08/17 05:10:45;;;;;;;6.63;4.20;;;;;;;27.12;49.42;96077.50;5034041;28;20049;-71
2022/08/17 05:13:15;;;;;;;5.63;3.95;;;;;;;27.40;46.97;96080.72;5034057;28;20128;-70
2022/08/17 05:15:43;;;;;;;8.57;4.00;;;;;;;27.68;46.58;96083.78;5033598;28;20096;-69
2022/08/17 05:18:12;;;;;;;4.43;4.03;;;;;;;28.01;45.18;96085.41;5033819;28;20081;-64
2022/08/17 05:20:40;;;;;;;5.18;3.95;;;;;;;28.33;45.48;96086.19;5034038;28;20045;-67
2022/08/17 05:23:10;;;;;;;7.88;3.97;;;;;;;28.65;45.15;96080.66;5033946;28;20085;-64
2022/08/17 05:25:39;;;;;;;7.57;4.00;;;;;;;28.99;46.24;96086.53;5033715;28;20061;-64
2022/08/17 05:28:07;;;;;;;4.95;3.75;;;;;;;29.21;43.57;96090.16;5033771;28;20041;-66
2022/08/17 05:30:35;;;;;;;6.43;4.25;;;;;;;29.32;43.35;96080.75;5033716;28;20607;-61
2022/08/17 05:33:06;;;;;;;3.90;3.50;;;;;;;29.67;43.69;96090.91;5033684;28;20053;-66
2022/08/17 05:35:37;;;;;;;4.13;3.72;;;;;;;29.70;42.96;96093.22;5033587;28;20506;-70
2022/08/17 05:38:04;;;;;;;7.68;4.88;;;;;;;29.62;42.55;96087.97;5033648;28;20042;-69
2022/08/17 05:40:32;;;;;;;4.57;3.90;;;;;;;29.71;42.84;96084.09;5033597;28;20479;-70
2022/08/17 05:43:08;;;;;;;8.02;4.00;;;;;;;30.06;41.97;96091.50;5033441;28;20100;-67
2022/08/17 05:45:39;;;;;;;4.65;3.63;;;;;;;30.29;40.72;96087.78;5033579;28;20144;-61
2022/08/17 05:48:09;;;;;;;9.52;3.90;;;;;;;30.40;37.11;96089.13;5033498;28;20049;-68
2022/08/17 05:50:48;;;;;;;6.43;3.70;;;;;;;30.61;37.98;96090.94;5033498;28;20049;-68
2022/08/17 05:53:23;;;;;;;4.70;3.40;;;;;;;30.95;35.93;96095.75;5033458;28;20087;-63
2022/08/17 05:55:59;;;;;;;8.10;3.88;;;;;;;31.36;35.22;96083.31;5033294;28;20384;-64
2022/08/17 05:58:32;;;;;;;7.32;3.50;;;;;;;31.59;33.44;96082.97;5033293;28;20049;-67
2022/08/17 06:01:08;;;;;;;6.00;3.80;;;;;;;31.44;33.41;96080.41;5033518;28;20099;-71
2022/08/17 06:03:46;;;;;;;8.25;3.75;;;;;;;31.84;35.14;96086.97;5033168;28;20072;-71
2022/08/17 06:06:38;;;;;;;4.72;3.40;;;;;;;32.15;32.25;96078.28;5033088;28;20053;-62
2022/08/17 06:09:25;;;;;;;5.68;3.30;;;;;;;32.17;30.26;96088.91;5033024;28;20056;-61
2022/08/17 06:12:00;;;;;;;5.05;3.45;;;;;;;32.09;31.22;96087.25;5033111;28;20045;-69
2022/08/17 06:14:43;;;;;;;5.10;3.13;;;;;;;32.32;31.33;96087.88;5032877;28;20502;-67
2022/08/17 06:17:14;;;;;;;6.90;3.40;;;;;;;32.44;30.61;96088.09;5032904;28;20046;-68
2022/08/17 06:19:44;;;;;;;5.63;3.45;;;;;;;32.78;30.42;96089.72;5033052;28;20045;-66
2022/08/17 06:22:17;;;;;;;4.95;3.58;;;;;;;32.92;29.70;96095.13;5032957;28;20060;-67
2022/08/17 06:24:48;;;;;;;8.48;3.60;;;;;;;33.02;30.21;96090.09;5032993;28;20089;-69
2022/08/17 06:27:23;;;;;;;6.65;3.60;;;;;;;33.06;29.59;96095.13;5032931;28;20053;-65
2022/08/17 06:29:57;;;;;;;4.70;3.45;;;;;;;33.27;28.53;96100.28;5033017;28;20041;-69
2022/08/17 06:32:25;;;;;;;7.35;3.65;;;;;;;33.33;29.30;96100.44;5032845;28;20046;-69
2022/08/17 06:34:52;;;;;;;5.60;3.35;;;;;;;33.01;29.07;96088.44;5032888;28;20089;-65
2022/08/17 06:37:39;;;;;;;7.00;3.00;;;;;;;33.25;29.76;96096.94;5032988;28;20052;-67
2022/08/17 06:40:37;;;;;;;12.68;3.40;;;;;;;33.39;30.44;96095.00;5032785;28;20051;-72
2022/08/17 06:43:21;;;;;;;5.43;3.13;;;;;;;33.58;28.99;96092.41;5032972;28;20149;-69
2022/08/17 06:46:01;;;;;;;7.75;3.90;;;;;;;33.48;28.39;96086.63;5032787;28;20450;-67
2022/08/17 06:48:36;;;;;;;7.03;3.17;;;;;;;33.45;28.66;96087.91;5032833;28;20049;-72
2022/08/17 06:51:14;;;;;;;4.32;2.78;;;;;;;33.68;28.10;96083.03;5032827;28;20076;-73
2022/08/17 06:53:48;;;;;;;10.52;3.28;;;;;;;33.84;29.10;96087.94;5032860;28;20053;-66
2022/08/17 06:56:30;;;;;;;4.72;3.30;;;;;;;33.95;27.95;96091.81;5032874;28;20141;-69
2022/08/17 06:59:00;;;;;;;6.88;2.92;;;;;;;34.03;28.08;96091.56;5032816;28;20092;-62
2022/08/17 07:01:34;;;;;;;7.88;3.63;;;;;;;33.98;28.27;96093.28;5032690;28;20100;-65
2022/08/17 07:04:10;;;;;;;4.00;3.53;;;;;;;34.03;27.68;96090.72;5032727;28;20123;-65
2022/08/17 07:06:45;;;;;;;5.25;3.38;;;;;;;33.86;28.25;96091.25;5032564;28;20076;-60
2022/08/17 07:09:22;;;;;;;4.55;3.25;;;;;;;33.97;28.14;96091.59;5032774;28;20479;-60
2022/08/17 07:11:53;;;;;;;5.10;3.05;;;;;;;33.89;27.90;96081.84;5032657;28;20088;-65
2022/08/17 07:14:32;;;;;;;5.72;3.38;;;;;;;34.18;27.73;96086.88;5032396;28;20136;-66
2022/08/17 07:17:06;;;;;;;8.80;3.45;;;;;;;34.43;27.96;96091.50;5032572;28;20125;-61
2022/08/17 07:19:39;;;;;;;5.18;3.15;;;;;;;34.54;26.02;96077.19;5032658;28;20053;-67
2022/08/17 07:22:16;;;;;;;4.40;2.90;;;;;;;34.74;26.84;96085.19;5032448;28;20056;-70
2022/08/17 07:24:49;;;;;;;5.47;3.22;;;;;;;35.03;26.92;96088.22;5032410;28;20053;-62
2022/08/17 07:27:21;;;;;;;4.25;2.95;;;;;;;35.37;25.93;96092.47;5032541;28;20068;-68
2022/08/17 07:29:53;;;;;;;6.97;3.25;;;;;;;34.62;26.52;96081.50;5034062;28;20060;-62
2022/08/17 07:32:25;;;;;;;8.65;3.45;;;;;;;34.27;27.53;96089.13;5035916;28;20053;-64
2022/08/17 07:35:12;;;;;;;8.32;3.50;;;;;;;33.95;27.54;96091.81;5035922;28;20574;-73
2022/08/17 07:37:41;;;;;;;10.82;3.70;;;;;;;34.04;27.94;96081.53;5035926;28;20053;-67
2022/08/17 07:40:21;;;;;;;5.43;3.20;;;;;;;34.44;27.04;96072.28;5035780;28;20167;-65
2022/08/17 07:43:16;;;;;;;5.13;3.78;;;;;;;34.21;26.93;96086.44;5035731;28;20049;-64
2022/08/17 07:48:45;;;;;;;5.22;3.65;;;;;;;34.12;27.53;96069.56;5035673;28;20091;-65
2022/08/17 07:51:19;;;;;;;8.82;3.42;;;;;;;34.24;27.81;96078.69;5035567;28;20449;-65
2022/08/17 07:53:47;;;;;;;9.90;3.70;;;;;;;33.87;26.89;96079.38;5035492;28;20100;-65
2022/08/17 07:56:36;;;;;;;5.00;3.25;;;;;;;33.96;26.78;96079.94;5035341;28;20144;-62
2022/08/17 07:59:16;;;;;;;3.85;3.42;;;;;;;34.31;27.39;96072.41;5035568;28;20107;-67
2022/08/17 08:02:02;;;;;;;4.88;3.80;;;;;;;34.53;27.15;96073.63;5035388;28;20680;-67
2022/08/17 08:04:35;;;;;;;4.78;3.55;;;;;;;34.83;26.09;96074.88;5035339;28;20399;-66
2022/08/17 08:07:06;;;;;;;8.90;3.72;;;;;;;35.28;25.97;96075.66;5035408;28;20061;-65
2022/08/17 08:09:41;;;;;;;3.80;3.40;;;;;;;35.30;24.45;96070.78;5035250;28;20046;-63
2022/08/17 08:12:34;;;;;;;8.20;3.78;;;;;;;35.45;25.44;96070.41;5035412;28;20049;-67
2022/08/17 08:15:13;;;;;;;7.07;3.40;;;;;;;35.70;23.65;96065.94;5025250;28;20057;-69
2022/08/17 08:17:52;;;;;;;5.80;3.28;;;;;;;35.91;25.17;96062.69;5035283;28;20080;-67
2022/08/17 08:20:27;;;;;;;7.93;3.38;;;;;;;36.20;23.53;96055.81;5035031;28;20049;-64
2022/08/17 08:23:04;;;;;;;4.57;3.22;;;;;;;36.47;23.11;96064.34;5035000;28;20045;-64
2022/08/17 08:25:47;;;;;;;4.45;3.22;;;;;;;36.68;22.64;96056.63;5034694;28;20454;-67
2022/08/17 08:28:25;;;;;;;4.38;3.55;;;;;;;36.87;21.74;96062.81;5035036;28;20446;-64
2022/08/17 08:30:59;;;;;;;3.72;2.90;;;;;;;36.71;21.76;96056.19;5034913;28;20410;-66
2022/08/17 08:33:38;;;;;;;5.45;3.60;;;;;;;36.87;22.96;96060.06;5034931;28;20056;-66
2022/08/17 08:36:22;;;;;;;4.18;3.30;;;;;;;37.05;22.58;96064.56;5034683;28;20049;-67
2022/08/17 08:38:58;;;;;;;8.13;3.88;;;;;;;36.77;21.11;96055.25;5034940;28;20128;-66
2022/08/17 08:41:37;;;;;;;6.95;3.50;;;;;;;36.63;22.37;96049.19;5034746;28;20041;-65
2022/08/17 08:44:28;;;;;;;11.13;3.70;;;;;;;36.68;22.83;96043.03;5034676;28;20057;-69
2022/08/17 08:47:02;;;;;;;8.20;3.40;;;;;;;36.86;21.85;96043.97;5034692;28;20475;-69
2022/08/17 08:50:07;;;;;;;7.25;3.90;;;;;;;37.07;21.85;96047.97;5034507;28;20048;-63
2022/08/17 08:52:58;;;;;;;5.00;3.28;;;;;;;36.66;20.02;96045.16;5024514;28;20541;-67
2022/08/17 08:55:44;;;;;;;7.00;3.28;;;;;;;36.32;21.74;96045.75;5034447;28;20384;-62
2022/08/17 08:58:16;;;;;;;4.78;3.13;;;;;;;36.09;22.45;96039.19;5034498;28;20046;-67
2022/08/17 09:00:48;;;;;;;5.55;3.60;;;;;;;35.74;22.10;96038.06;5034287;28;20095;-65
2022/08/17 09:03:26;;;;;;;4.72;3.22;;;;;;;35.62;23.51;96043.41;5034275;28;20057;-66
2022/08/17 09:06:20;;;;;;;5.65;3.58;;;;;;;35.52;22.61;96030.38;5034399;28;20099;-61
2022/08/17 09:09:02;;;;;;;13.20;3.50;;;;;;;35.36;23.82;96040.00;5034218;28;20050;-64
2022/08/17 09:11:36;;;;;;;4.85;3.53;;;;;;;35.65;23.24;96040.25;5034172;28;20049;-67
2022/08/17 09:14:15;;;;;;;4.07;3.40;;;;;;;35.59;21.94;96040.31;5034035;28;20454;-69
2022/08/17 09:16:49;;;;;;;6.30;3.17;;;;;;;35.54;22.56;96049.16;5033906;28;20080;-68
2022/08/17 09:19:29;;;;;;;4.45;3.30;;;;;;;35.53;21.54;96055.66;5034080;28;20134;-63
2022/08/17 09:22:02;;;;;;;3.72;3.38;;;;;;;35.41;22.20;96042.88;5033950;28;20119;-61
2022/08/17 09:24:38;;;;;;;4.95;3.28;;;;;;;35.36;22.91;96040.00;5034077;28;20056;-67
2022/08/17 09:27:13;;;;;;;6.10;3.25;;;;;;;35.42;23.74;96032.81;5033863;28;20049;-63
2022/08/17 09:29:47;;;;;;;6.80;3.75;;;;;;;35.63;21.94;96033.34;5033963;28;20045;-62
2022/08/17 09:32:21;;;;;;;9.38;3.20;;;;;;;35.68;23.45;96041.66;5033751;28;20530;-62
2022/08/17 09:34:53;;;;;;;4.75;2.88;;;;;;;35.80;22.66;96039.00;5033627;28;20041;-61
2022/08/17 09:37:28;;;;;;;4.03;3.20;;;;;;;35.70;22.05;96038.75;5033644;28;20050;-65
2022/08/17 09:40:08;;;;;;;7.00;3.10;;;;;;;35.28;22.63;96041.13;5033801;28;20049;-68
2022/08/17 09:42:45;;;;;;;5.60;3.10;;;;;;;34.75;24.50;96042.56;5033623;28;20081;-64
2022/08/17 09:45:26;;;;;;;4.85;3.35;;;;;;;34.59;24.19;96043.97;5033589;28;20487;-61
2022/08/17 09:47:59;;;;;;;10.10;2.80;;;;;;;34.34;24.63;96036.69;5033722;28;20549;-65
2022/08/17 09:50:33;;;;;;;5.70;2.92;;;;;;;34.03;24.88;96037.31;5033401;28;20573;-64
2022/08/17 09:53:02;;;;;;;5.60;2.80;;;;;;;34.34;25.41;96042.91;5033200;28;20046;-60
2022/08/17 09:55:45;;;;;;;5.35;2.90;;;;;;;34.59;25.78;96041.25;5033428;28;20050;-64
2022/08/17 09:58:22;;;;;;;8.25;2.80;;;;;;;34.72;24.46;96034.88;5033360;28;20049;-66
2022/08/17 10:00:55;;;;;;;5.78;2.97;;;;;;;34.28;25.27;96046.56;5033421;28;20506;-67
2022/08/17 10:03:47;;;;;;;7.85;3.13;;;;;;;33.91;26.51;96048.03;5033265;28;20049;-68
2022/08/17 10:06:27;;;;;;;3.50;2.75;;;;;;;33.59;26.99;96048.03;5033185;28;20046;-62
2022/08/17 10:09:07;;;;;;;3.88;2.83;;;;;;;33.29;27.43;96037.75;5033074;28;20056;-66
2022/08/17 10:14:35;;;;;;;4.13;2.88;;;;;;;33.25;24.79;96028.38;5033271;28;20111;-67
2022/08/17 10:17:10;;;;;;;4.28;2.90;;;;;;;33.59;26.11;96030.94;5033231;28;20091;-65
2022/08/17 10:19:43;;;;;;;4.15;2.97;;;;;;;34.01;24.85;96025.03;5033204;28;20107;-63
2022/08/17 10:28:05;;;;;;;6.30;2.90;;;;;;;34.26;24.00;96021.50;5033305;28;20065;-67
2022/08/17 10:30:36;;;;;;;4.72;2.90;;;;;;;34.24;24.04;96013.59;5032946;28;20077;-62
2022/08/17 10:33:07;;;;;;;7.85;2.90;;;;;;;34.08;24.46;96014.97;5033417;28;20041;-70
2022/08/17 10:35:49;;;;;;;5.78;3.13;;;;;;;33.74;25.31;95996.22;5032999;28;20088;-65
2022/08/17 10:38:35;;;;;;;7.82;2.70;;;;;;;33.96;25.15;95998.56;5032830;28;20046;-67
2022/08/17 10:41:17;;;;;;;3.45;2.72;;;;;;;34.08;25.16;95995.97;5032920;28;20057;-64
2022/08/17 10:43:56;;;;;;;5.00;2.70;;;;;;;33.99;25.03;96008.16;5032943;28;20099;-71
2022/08/17 10:46:28;;;;;;;8.18;2.75;;;;;;;33.96;25.10;96014.84;5032731;28;20553;-66
2022/08/17 10:49:25;;;;;;;3.38;2.60;;;;;;;33.99;24.83;96008.16;5032815;28;20049;-65
2022/08/17 10:51:58;;;;;;;3.78;2.60;;;;;;;33.86;24.29;96004.47;5032899;28;20041;-62
2022/08/17 10:55:11;;;;;;;3.17;2.58;;;;;;;34.07;23.81;95986.16;5032701;28;20053;-61
2022/08/17 10:57:43;;;;;;;4.88;3.00;;;;;;;34.30;24.38;95998.31;4991327;28;20061;-61
2022/08/17 11:00:49;;;;;;;4.57;2.90;;;;;;;34.11;25.00;95997.41;5028944;28;20498;-64
2022/08/17 11:03:21;;;;;;;11.10;2.70;;;;;;;33.79;24.95;95992.84;5032935;28;20046;-66
2022/08/17 11:06:11;;;;;;;7.25;2.60;;;;;;;33.64;25.99;95999.44;5036228;28;20152;-67
2022/08/17 11:08:55;;;;;;;;;;;;;;;33.12;25.60;95985.94;5036869;28;20392;-67
2022/08/17 11:11:41;;;;;;;4.32;2.50;;;;;;;32.54;26.51;95991.13;5036366;28;20379;-63
2022/08/17 11:14:26;;;;;;;4.07;2.55;;;;;;;32.30;26.25;95988.03;5036274;28;20049;-65
2022/08/17 11:17:10;;;;;;;3.40;2.67;;;;;;;32.18;26.81;95986.97;5035984;28;20065;-68
2022/08/17 11:20:03;;;;;;;3.70;2.60;;;;;;;32.22;25.99;95983.66;5036034;28;20072;-66
2022/08/17 11:23:17;;;;;;;3.97;2.78;;;;;;;32.33;29.23;95989.47;5034464;28;20096;-65
2022/08/17 11:25:50;;;;;;;7.82;2.92;;;;;;;32.40;28.75;95987.56;5036133;28;20095;-65
2022/08/17 11:28:22;;;;;;;5.78;2.75;;;;;;;32.75;25.13;95997.31;5036013;28;20089;-70
2022/08/17 11:30:52;;;;;;;3.92;2.70;;;;;;;33.06;24.81;95986.78;5035874;28;20060;-67
2022/08/17 11:33:57;;;;;;;8.13;2.42;;;;;;;33.36;24.41;95978.94;5036279;28;20057;-69
2022/08/17 11:36:49;;;;;;;4.68;2.42;;;;;;;33.43;24.40;95984.31;5035857;28;20392;-68
2022/08/17 11:39:39;;;;;;;2.97;2.78;;;;;;;33.46;24.17;95980.31;5035752;28;20105;-68
2022/08/17 11:42:25;;;;;;;5.75;3.17;;;;;;;33.65;24.75;95982.09;5035752;28;20049;-60
2022/08/17 11:44:56;;;;;;;2.92;2.47;;;;;;;33.62;25.47;95984.44;5035708;28;20046;-65
2022/08/17 11:53:54;;;;;;;7.95;3.45;;;;;;;33.32;26.70;95995.84;5036061;28;20179;-69
2022/08/17 11:56:41;;;;;;;7.07;3.70;;;;;;;33.00;28.06;95981.19;5031957;28;20060;-68
2022/08/17 11:59:42;;;;;;;7.35;3.20;;;;;;;32.72;28.42;95993.13;5035486;28;20049;-67
2022/08/17 12:02:41;;;;;;;5.20;3.33;;;;;;;32.64;28.10;95979.84;5029294;28;20045;-70
2022/08/17 12:05:36;;;;;;;6.25;3.60;;;;;;;32.65;28.57;95978.78;5035452;28;20050;-67
2022/08/17 12:08:18;;;;;;;3.92;3.28;;;;;;;32.70;28.52;95979.00;5035409;28;20050;-63
2022/08/17 12:11:01;;;;;;;10.45;3.30;;;;;;;32.98;27.84;95974.28;5035252;28;20057;-66
2022/08/17 12:13:34;;;;;;;7.93;3.38;;;;;;;33.25;27.05;95976.91;5035390;28;20124;-69
2022/08/17 12:16:03;;;;;;;6.95;3.15;;;;;;;33.43;27.02;95972.66;5034402;28;20523;-65
2022/08/17 12:18:34;;;;;;;5.63;3.13;;;;;;;33.72;26.70;95975.81;5035035;28;20050;-71
2022/08/17 12:21:18;;;;;;;4.22;2.90;;;;;;;34.07;26.00;95972.59;5035167;28;20411;-64
2022/08/17 12:23:55;;;;;;;3.42;3.13;;;;;;;34.26;25.42;95969.97;5035145;28;20049;-66
2022/08/17 12:26:26;;;;;;;7.85;3.47;;;;;;;34.25;25.29;95968.31;5035183;28;20046;-63
2022/08/17 12:29:01;;;;;;;6.63;3.22;;;;;;;34.45;24.95;95962.69;5034883;28;20049;-65
2022/08/17 12:31:34;;;;;;;4.13;3.30;;;;;;;34.69;25.99;95962.88;5035016;28;20085;-69
2022/08/17 12:34:15;;;;;;;5.47;3.47;;;;;;;34.91;24.90;95957.78;5034879;28;20046;-64
2022/08/17 12:36:42;;;;;;;7.10;3.47;;;;;;;35.15;24.48;95965.22;5034744;28;20061;-62